Time;durP1;ratioP1;P1;durP2;ratioP2;P2;SDS_P1;SDS_P2;PMS_P1;PMS_P2;Temp;Humidity;BMP_temperature;BMP_pressure;BME280_temperature;BME280_humidity;BME280_pressure;Samples;Min_cycle;Max_cycle;Signal;HPM_P1;HPM_P2
2022/08/18 00:00:39;;;;;;;;;;;;;;;22.68;57.83;99487.94;1083426;54;19947;-77
2022/08/18 00:01:44;;;;;;;;;;;;;;;22.69;57.45;99477.88;1083709;47;20351;-76
2022/08/18 00:02:45;;;;;;;;;;;;;;;22.70;57.47;99483.09;1083245;54;19951;-76
2022/08/18 00:03:49;;;;;;;;;;;;;;;22.59;57.59;99476.56;1083928;54;19938;-77
2022/08/18 00:04:53;;;;;;;;;;;;;;;22.63;57.66;99476.09;1083537;54;19946;-76
2022/08/18 00:05:54;;;;;;;;;;;;;;;22.65;57.07;99468.53;1083929;54;20038;-77
2022/08/18 00:06:58;;;;;;;;;;;;;;;22.55;57.19;99472.69;1083586;54;19954;-76
2022/08/18 00:07:59;;;;;;;;;;;;;;;22.56;57.26;99470.78;1084083;54;19947;-76
2022/08/18 00:09:05;;;;;;;;;;;;;;;22.60;57.04;99466.53;1083895;46;20086;-76
2022/08/18 00:10:06;;;;;;;;;;;;;;;22.61;57.31;99472.78;1082771;54;19939;-76
2022/08/18 00:11:10;;;;;;;;;;;;;;;22.60;57.27;99474.69;1082809;54;19946;-76
2022/08/18 00:12:13;;;;;;;;;;;;;;;22.65;57.21;99471.25;1082858;39;20322;-76
2022/08/18 00:13:17;;;;;;;;;;;;;;;22.61;57.16;99476.34;1082554;54;19973;-76
2022/08/18 00:14:19;;;;;;;;;;;;;;;22.66;57.19;99467.47;1082763;54;19953;-76
2022/08/18 00:15:23;;;;;;;;;;;;;;;22.65;57.15;99479.44;1082332;54;19945;-76
2022/08/18 00:16:27;;;;;;;;;;;;;;;22.67;56.99;99471.84;1082502;54;20038;-76
2022/08/18 00:17:31;;;;;;;;;;;;;;;22.56;57.51;99471.63;1082838;54;19971;-77
2022/08/18 00:18:32;;;;;;;;;;;;;;;22.56;57.09;99463.44;1082415;54;19989;-76
2022/08/18 00:19:36;;;;;;;;;;;;;;;22.51;57.31;99471.50;1082506;54;19989;-76
2022/08/18 00:20:39;;;;;;;;;;;;;;;22.54;57.56;99464.72;1082956;39;20382;-76
2022/08/18 00:21:43;;;;;;;;;;;;;;;22.52;57.53;99469.59;1082701;54;19947;-77
2022/08/18 00:22:44;;;;;;;;;;;;;;;22.63;57.19;99460.56;1082282;54;19978;-76
2022/08/18 00:23:48;;;;;;;;;;;;;;;22.65;57.04;99465.81;1082492;54;19950;-76
2022/08/18 00:24:51;;;;;;;;;;;;;;;22.63;57.25;99473.38;1082102;54;19965;-76
2022/08/18 00:25:58;;;;;;;;;;;;;;;22.67;57.04;99474.56;1082643;54;19946;-77
2022/08/18 00:26:59;;;;;;;;;;;;;;;22.72;56.83;99474.69;1083318;39;20373;-76
2022/08/18 00:28:03;;;;;;;;;;;;;;;22.73;57.05;99477.16;1082701;54;19946;-76
2022/08/18 00:29:04;;;;;;;;;;;;;;;22.62;57.62;99478.00;1082874;54;19946;-76
2022/08/18 00:30:10;;;;;;;;;;;;;;;22.66;57.52;99481.09;1082325;54;19951;-76
2022/08/18 00:31:11;;;;;;;;;;;;;;;22.64;57.57;99473.13;1082621;54;19958;-77
2022/08/18 00:32:19;;;;;;;;;;;;;;;22.67;57.71;99478.13;1082386;54;19958;-76
2022/08/18 00:33:20;;;;;;;;;;;;;;;22.57;57.96;99475.16;1082445;54;19950;-76
2022/08/18 00:34:23;;;;;;;;;;;;;;;22.52;58.39;99481.31;1082623;54;19947;-76
2022/08/18 00:35:26;;;;;;;;;;;;;;;22.51;58.41;99479.66;1082068;54;19950;-76
2022/08/18 00:36:31;;;;;;;;;;;;;;;22.58;58.01;99474.91;1082562;54;19954;-77
2022/08/18 00:37:32;;;;;;;;;;;;;;;22.62;58.30;99471.72;1082732;47;19950;-76
2022/08/18 00:38:36;;;;;;;;;;;;;;;22.59;58.39;99478.47;1082607;54;19947;-76
2022/08/18 00:39:37;;;;;;;;;;;;;;;22.49;59.07;99470.06;1082800;54;20449;-76
2022/08/18 00:40:42;;;;;;;;;;;;;;;22.35;60.10;99472.19;1082272;54;19978;-76
2022/08/18 00:41:43;;;;;;;;;;;;;;;22.34;59.89;99467.78;1082753;54;19946;-77
2022/08/18 00:42:48;;;;;;;;;;;;;;;22.37;60.02;99478.22;1082461;54;19954;-76
2022/08/18 00:43:50;;;;;;;;;;;;;;;22.40;60.20;99475.03;1082666;54;19970;-77
2022/08/18 00:44:54;;;;;;;;;;;;;;;22.32;60.83;99480.81;1082371;54;19943;-76
2022/08/18 00:45:55;;;;;;;;;;;;;;;22.19;61.59;99476.44;1082922;39;20364;-76
2022/08/18 00:46:59;;;;;;;;;;;;;;;22.16;61.37;99480.44;1082597;54;19946;-76
2022/08/18 00:48:03;;;;;;;;;;;;;;;22.25;61.12;99476.31;1082632;54;19947;-76
2022/08/18 00:49:07;;;;;;;;;;;;;;;22.24;61.45;99473.84;1082714;54;20030;-77
2022/08/18 00:50:10;;;;;;;;;;;;;;;22.20;62.28;99470.72;1082296;54;20073;-76
2022/08/18 00:51:17;;;;;;;;;;;;;;;22.12;62.47;99482.81;1082405;54;19947;-76
2022/08/18 00:52:19;;;;;;;;;;;;;;;22.20;61.99;99480.81;1082703;54;19985;-76
2022/08/18 00:53:26;;;;;;;;;;;;;;;22.21;62.38;99485.19;1082559;54;20405;-77
2022/08/18 00:54:29;;;;;;;;;;;;;;;22.10;63.50;99484.94;1082698;54;19951;-76
2022/08/18 00:55:34;;;;;;;;;;;;;;;22.08;62.82;99486.25;1082512;54;19981;-76
2022/08/18 00:56:37;;;;;;;;;;;;;;;22.11;63.34;99491.19;1083247;31;20374;-76
2022/08/18 00:57:42;;;;;;;;;;;;;;;21.98;63.79;99492.25;1082740;54;20700;-76
2022/08/18 00:58:45;;;;;;;;;;;;;;;22.08;63.36;99494.41;1082766;54;19946;-76
2022/08/18 00:59:52;;;;;;;;;;;;;;;22.06;63.58;99489.19;1083421;31;20406;-76
2022/08/18 01:00:54;;;;;;;;;;;;;;;22.11;63.98;99499.34;1082629;54;19953;-76
2022/08/18 01:02:01;;;;;;;;;;;;;;;22.04;63.94;99490.47;1082328;54;19957;-76
2022/08/18 01:03:07;;;;;;;;;;;;;;;22.06;63.52;99493.81;1082037;54;20058;-76
2022/08/18 01:05:17;;;;;;;;;;;;;;;22.01;65.07;99488.25;1083081;39;20284;-78
2022/08/18 01:06:22;;;;;;;;;;;;;;;22.02;64.67;99479.00;1082866;54;20740;-78
2022/08/18 01:07:28;;;;;;;;;;;;;;;22.02;64.36;99484.44;1082219;54;19946;-77
2022/08/18 01:08:30;;;;;;;;;;;;;;;22.03;63.80;99489.66;1082467;54;20455;-78
2022/08/18 01:09:34;;;;;;;;;;;;;;;22.02;64.83;99484.44;1082751;54;19947;-75
2022/08/18 01:10:35;;;;;;;;;;;;;;;22.01;64.44;99480.09;1082940;54;20017;-76
2022/08/18 01:11:40;;;;;;;;;;;;;;;21.97;64.31;99491.44;1084149;54;19943;-76
2022/08/18 01:12:42;;;;;;;;;;;;;;;21.91;64.96;99480.63;1084301;54;19955;-76
2022/08/18 01:13:46;;;;;;;;;;;;;;;21.81;65.03;99481.22;1085325;39;20452;-75
2022/08/18 01:14:47;;;;;;;;;;;;;;;21.83;64.92;99484.53;1084913;54;19947;-75
2022/08/18 01:15:51;;;;;;;;;;;;;;;21.83;64.80;99483.69;1084496;54;19950;-75
2022/08/18 01:22:23;;;;;;;;;;;;;;;21.72;66.16;99477.19;1082043;54;20062;-77
2022/08/18 01:23:28;;;;;;;;;;;;;;;21.60;67.02;99486.13;1082125;54;20057;-76
2022/08/18 01:26:04;;;;;;;;;;;;;;;21.59;67.02;99472.75;1082162;54;19947;-75
2022/08/18 01:27:05;;;;;;;;;;;;;;;21.63;66.59;99474.75;1082782;54;19953;-76
2022/08/18 01:28:06;;;;;;;;;;;;;;;21.62;66.88;99478.56;1082436;54;19969;-75
2022/08/18 01:29:10;;;;;;;;;;;;;;;21.62;66.86;99464.13;1082457;54;19946;-75
2022/08/18 01:30:14;;;;;;;;;;;;;;;21.63;67.85;99468.50;1082930;39;20010;-76
2022/08/18 01:31:32;;;;;;;;;;;;;;;21.60;67.28;99469.81;1082628;54;20057;-76
2022/08/18 01:32:33;;;;;;;;;;;;;;;21.60;66.70;99464.38;1082552;54;20034;-76
2022/08/18 01:33:38;;;;;;;;;;;;;;;21.60;66.92;99467.09;1082828;54;20033;-76
2022/08/18 01:34:39;;;;;;;;;;;;;;;21.63;67.14;99461.16;1082368;54;19973;-75
2022/08/18 01:35:48;;;;;;;;;;;;;;;21.63;66.80;99466.59;1082669;54;20794;-75
2022/08/18 01:36:51;;;;;;;;;;;;;;;21.57;67.21;99467.50;1082509;54;19939;-76
2022/08/18 01:37:55;;;;;;;;;;;;;;;21.56;67.89;99460.41;1082687;54;19947;-75
2022/08/18 01:38:59;;;;;;;;;;;;;;;21.56;67.37;99465.03;1082421;54;20054;-75
2022/08/18 01:40:04;;;;;;;;;;;;;;;21.43;68.12;99466.06;1082725;54;20436;-76
2022/08/18 01:41:06;;;;;;;;;;;;;;;21.41;68.54;99462.72;1082733;54;19946;-75
2022/08/18 01:42:10;;;;;;;;;;;;;;;21.24;68.88;99457.94;1082629;54;19946;-75
2022/08/18 01:43:11;;;;;;;;;;;;;;;21.27;69.09;99453.94;1082604;54;19946;-76
2022/08/18 01:44:14;;;;;;;;;;;;;;;21.30;68.75;99461.63;1082747;54;19974;-75
2022/08/18 01:45:17;;;;;;;;;;;;;;;21.33;68.58;99453.84;1082899;54;19973;-76
2022/08/18 01:46:21;;;;;;;;;;;;;;;21.34;68.42;99454.66;1083125;46;20401;-75
2022/08/18 01:47:23;;;;;;;;;;;;;;;21.35;68.13;99457.13;1082931;54;19946;-76
2022/08/18 01:48:26;;;;;;;;;;;;;;;21.35;68.26;99456.31;1083062;54;19958;-76
2022/08/18 01:49:28;;;;;;;;;;;;;;;21.36;68.56;99452.56;1082848;54;19946;-76
2022/08/18 01:50:32;;;;;;;;;;;;;;;21.37;68.43;99450.66;1083135;54;19969;-76
2022/08/18 01:51:36;;;;;;;;;;;;;;;21.39;68.13;99446.66;1083140;54;19970;-76
2022/08/18 01:52:39;;;;;;;;;;;;;;;21.40;68.53;99442.03;1083102;54;20458;-78
2022/08/18 01:53:41;;;;;;;;;;;;;;;21.43;68.23;99449.75;1083294;54;20088;-76
2022/08/18 01:54:47;;;;;;;;;;;;;;;21.42;68.82;99448.09;1083040;54;20002;-76
2022/08/18 01:55:48;;;;;;;;;;;;;;;21.35;68.84;99443.53;1083147;54;19947;-76
2022/08/18 01:56:52;;;;;;;;;;;;;;;21.32;69.22;99443.19;1083221;54;20417;-76
2022/08/18 01:57:54;;;;;;;;;;;;;;;21.28;69.15;99447.44;1083245;54;19939;-79
2022/08/18 01:58:57;;;;;;;;;;;;;;;21.18;70.05;99447.97;1083079;54;19946;-76
2022/08/18 01:59:59;;;;;;;;;;;;;;;21.14;70.74;99449.50;1083623;39;20360;-76
2022/08/18 02:01:04;;;;;;;;;;;;;;;21.14;70.46;99449.50;1083088;54;19946;-76
2022/08/18 02:02:05;;;;;;;;;;;;;;;21.11;70.90;99449.94;1083258;54;19950;-76
2022/08/18 02:03:11;;;;;;;;;;;;;;;21.00;71.96;99446.94;1082903;54;19945;-76
2022/08/18 02:04:13;;;;;;;;;;;;;;;20.95;72.21;99445.97;1083028;54;19953;-76
2022/08/18 02:05:20;;;;;;;;;;;;;;;20.87;72.46;99444.41;1083117;54;19954;-76
2022/08/18 02:06:21;;;;;;;;;;;;;;;20.84;72.59;99442.13;1083099;54;19991;-76
2022/08/18 02:07:25;;;;;;;;;;;;;;;20.83;73.10;99435.84;1083221;54;19950;-76
2022/08/18 02:08:26;;;;;;;;;;;;;;;20.77;73.24;99439.50;1083341;54;19946;-78
2022/08/18 02:09:30;;;;;;;;;;;;;;;20.81;73.09;99429.00;1083604;54;19946;-78
2022/08/18 02:10:34;;;;;;;;;;;;;;;20.83;72.67;99429.59;1084599;46;20460;-78
2022/08/18 02:11:38;;;;;;;;;;;;;;;20.93;72.49;99429.06;1084849;39;20372;-78
2022/08/18 02:12:39;;;;;;;;;;;;;;;20.89;72.43;99425.97;1083957;54;19950;-78
2022/08/18 02:13:43;;;;;;;;;;;;;;;20.96;72.11;99426.75;1084568;39;20321;-78
2022/08/18 02:14:45;;;;;;;;;;;;;;;21.03;72.76;99422.03;1083830;54;19945;-78
2022/08/18 02:15:49;;;;;;;;;;;;;;;21.06;72.57;99414.50;1084367;39;20387;-78
2022/08/18 02:16:50;;;;;;;;;;;;;;;21.10;72.52;99415.69;1083863;54;19947;-78
2022/08/18 02:17:54;;;;;;;;;;;;;;;21.12;72.79;99405.41;1083724;54;19951;-79
2022/08/18 02:18:55;;;;;;;;;;;;;;;21.07;74.06;99408.81;1083574;54;19939;-78
2022/08/18 02:19:59;;;;;;;;;;;;;;;21.00;73.95;99402.66;1084811;54;19950;-78
2022/08/18 02:21:05;;;;;;;;;;;;;;;20.93;73.67;99402.72;1084026;54;19947;-78
2022/08/18 02:22:09;;;;;;;;;;;;;;;20.90;74.09;99405.09;1084720;54;19947;-77
2022/08/18 02:23:13;;;;;;;;;;;;;;;20.86;74.13;99405.53;1084109;54;19993;-78
2022/08/18 02:24:14;;;;;;;;;;;;;;;20.86;74.16;99404.72;1083626;54;19946;-79
2022/08/18 02:25:19;;;;;;;;;;;;;;;20.86;73.78;99397.38;1084113;54;19957;-78
2022/08/18 02:26:22;;;;;;;;;;;;;;;20.88;73.62;99408.00;1084213;54;19947;-78
2022/08/18 02:27:28;;;;;;;;;;;;;;;20.89;73.47;99404.25;1083765;54;20034;-78
2022/08/18 02:28:29;;;;;;;;;;;;;;;20.92;72.80;99402.97;1083979;31;20444;-78
2022/08/18 02:29:33;;;;;;;;;;;;;;;20.93;73.22;99405.44;1083110;54;19954;-78
2022/08/18 02:30:36;;;;;;;;;;;;;;;20.92;72.57;99398.34;1083325;54;19946;-78
2022/08/18 02:31:39;;;;;;;;;;;;;;;20.93;72.24;99405.44;1083654;39;20318;-78
2022/08/18 02:32:41;;;;;;;;;;;;;;;20.96;72.43;99405.00;1082073;54;19969;-78
2022/08/18 02:33:45;;;;;;;;;;;;;;;20.98;72.28;99407.47;1083133;54;19951;-77
2022/08/18 02:34:46;;;;;;;;;;;;;;;20.99;72.49;99411.88;1083197;46;19947;-77
2022/08/18 02:35:53;;;;;;;;;;;;;;;20.99;72.25;99409.97;1082960;54;19946;-78
2022/08/18 02:36:54;;;;;;;;;;;;;;;21.00;72.32;99395.31;1083608;39;20447;-78
2022/08/18 02:38:00;;;;;;;;;;;;;;;20.98;72.90;99400.16;1083030;54;19939;-78
2022/08/18 02:39:01;;;;;;;;;;;;;;;20.94;72.65;99393.53;1082957;54;20456;-78
2022/08/18 02:40:05;;;;;;;;;;;;;;;20.90;73.09;99386.88;1082971;54;19947;-78
2022/08/18 02:41:08;;;;;;;;;;;;;;;20.86;73.80;99380.28;1083120;54;19950;-78
2022/08/18 02:42:15;;;;;;;;;;;;;;;20.82;74.41;99381.78;1083112;54;19970;-77
2022/08/18 02:43:16;;;;;;;;;;;;;;;20.84;73.44;99379.66;1082949;54;19951;-77
2022/08/18 02:44:19;;;;;;;;;;;;;;;20.88;72.79;99381.69;1083697;39;20421;-78
2022/08/18 02:45:22;;;;;;;;;;;;;;;20.92;72.94;99378.53;1083104;54;19946;-78
2022/08/18 02:46:26;;;;;;;;;;;;;;;20.95;72.44;99375.34;1083033;54;20042;-78
2022/08/18 02:47:27;;;;;;;;;;;;;;;20.99;72.57;99371.13;1083878;54;19951;-79
2022/08/18 02:48:34;;;;;;;;;;;;;;;20.98;72.36;99374.88;1084603;54;19939;-79
2022/08/18 02:49:35;;;;;;;;;;;;;;;21.00;72.60;99372.78;1084511;54;20029;-79
2022/08/18 02:50:46;;;;;;;;;;;;;;;21.01;72.75;99369.00;1084688;54;19946;-76
2022/08/18 02:51:48;;;;;;;;;;;;;;;21.02;72.63;99371.47;1084545;54;20002;-79
2022/08/18 02:52:53;;;;;;;;;;;;;;;21.02;72.73;99366.03;1084513;54;19950;-79
2022/08/18 02:53:54;;;;;;;;;;;;;;;21.03;72.36;99365.00;1084322;54;19940;-79
2022/08/18 02:54:57;;;;;;;;;;;;;;;21.05;72.37;99362.03;1084253;54;19973;-80
2022/08/18 02:56:05;;;;;;;;;;;;;;;21.05;72.16;99359.31;1084434;54;19946;-79
2022/08/18 02:57:10;;;;;;;;;;;;;;;21.04;72.53;99363.94;1084531;54;19946;-79
2022/08/18 02:58:14;;;;;;;;;;;;;;;20.85;73.78;99365.84;1084224;54;19947;-79
2022/08/18 02:59:23;;;;;;;;;;;;;;;20.77;74.04;99368.88;1084444;54;20020;-78
2022/08/18 03:00:24;;;;;;;;;;;;;;;20.71;74.75;99378.72;1084127;54;19954;-78
2022/08/18 03:01:29;;;;;;;;;;;;;;;20.69;74.97;99375.41;1084136;54;19946;-79
2022/08/18 03:02:32;;;;;;;;;;;;;;;20.66;75.33;99378.59;1084058;54;19946;-78
2022/08/18 03:03:34;;;;;;;;;;;;;;;20.63;76.05;99379.03;1083985;54;19948;-78
2022/08/18 03:04:38;;;;;;;;;;;;;;;20.62;76.35;99377.38;1083921;54;19950;-78
2022/08/18 03:05:39;;;;;;;;;;;;;;;20.54;76.74;99375.81;1084378;47;19947;-78
2022/08/18 03:06:43;;;;;;;;;;;;;;;20.52;76.80;99382.50;1084585;54;19946;-79
2022/08/18 03:07:44;;;;;;;;;;;;;;;20.53;76.82;99382.31;1084264;54;19954;-78
2022/08/18 03:08:49;;;;;;;;;;;;;;;20.49;77.07;99381.09;1084725;39;20349;-78
2022/08/18 03:09:50;;;;;;;;;;;;;;;20.51;77.12;99383.56;1084269;54;19947;-77
2022/08/18 03:10:54;;;;;;;;;;;;;;;20.45;76.93;99388.00;1084403;54;20070;-78
2022/08/18 03:11:58;;;;;;;;;;;;;;;20.46;77.04;99386.13;1084404;54;19951;-78
2022/08/18 03:12:59;;;;;;;;;;;;;;;20.45;77.25;99381.75;1084294;54;19958;-79
2022/08/18 03:14:06;;;;;;;;;;;;;;;20.45;77.14;99381.75;1084434;54;19946;-78
2022/08/18 03:15:08;;;;;;;;;;;;;;;20.44;77.30;99385.53;1084717;39;20325;-78
2022/08/18 03:16:12;;;;;;;;;;;;;;;20.48;76.99;99384.03;1084194;54;19947;-78
2022/08/18 03:17:13;;;;;;;;;;;;;;;20.49;76.91;99382.97;1084306;54;19954;-78
2022/08/18 03:18:17;;;;;;;;;;;;;;;20.49;77.16;99381.09;1084100;54;19969;-78
2022/08/18 03:19:19;;;;;;;;;;;;;;;20.50;77.22;99382.75;1084354;54;19970;-78
2022/08/18 03:20:23;;;;;;;;;;;;;;;20.51;77.12;99386.28;1084411;39;20353;-77
2022/08/18 03:21:26;;;;;;;;;;;;;;;20.51;77.12;99383.56;1084711;39;20322;-78
2022/08/18 03:22:29;;;;;;;;;;;;;;;20.51;77.75;99384.41;1084276;54;20038;-78
2022/08/18 03:23:30;;;;;;;;;;;;;;;20.49;77.99;99388.41;1084153;54;19951;-78
